• Join FlightAware (Why Join?)
  • Login
  • US Flag 
07:30AM EST


 

Airport Tracker/Info


-or-


 

Live Flight TrackerFlight Track Log ✈ DAL1747 ✈ 04-Sep-2014 ✈ KLGA - KATL

Flight Track Log - Related Links

Times and Time Zones

All times are in EDT time to prevent confusion due to time zone crossing. See the DAL1747 flight status page for this flight to view local times or setup timezone preferences in your user account.

Time Position Orientation Groundspeed Altitude Reporting Facility
EDT Latitude Longitude Course Direction KTS MPH feet Rate Location/Type
09:33AM 40.7333 -73.8333 252° West 191 220 2,100  Level New York TRACON
09:34AM 40.7833 -73.7667 45° Northeast 245 282 4,600 2,640 Climbing New York TRACON
09:35AM 40.5671 -74.2381 258° West  Level Estimated
09:36AM 40.6614 -74.4343 259° West  Level FlightAware Approximate
09:36AM 40.8667 -73.7500 North 273 314 8,000  Level New York TRACON
09:37AM 40.6384 -74.5841 259° West  Level FlightAware Approximate
09:37AM 40.9333 -73.7833 339° North 288 331 10,300  Level New York TRACON
09:37AM 40.9167 -73.8833 258° West 295 339 11,800 1,500 Climbing New York TRACON
09:38AM 40.6013 -74.7270 255° West  Level FlightAware Approximate
09:39AM 40.5811 -74.8755 252° West  Level FlightAware Approximate
09:39AM 40.9000 -74.0167 261° West 352 405 13,400  Level New York TRACON
09:39AM 40.8667 -74.1000 242° Southwest 329 379 15,100 1,260 Climbing New York TRACON
09:40AM 40.8333 -74.2333 252° West 321 369 15,900 900 Climbing New York TRACON
09:41AM 40.8000 -74.3333 246° West 332 382 17,100 660 Climbing New York TRACON
09:42AM 40.7744 -74.3939 241° Southwest 319 367 17,000 -120 Descending New York Center
09:43AM 40.7383 -74.5014 246° West 320 368 17,000  Level New York Center
09:44AM 40.6989 -74.6169 246° West 324 373 17,000  Level New York Center
09:45AM 40.6622 -74.7253 246° West 324 373 17,000  Level New York Center
09:46AM 40.6169 -74.8578 246° West 369 425 17,100 960 Climbing New York Center
09:47AM 40.5728 -74.9894 246° West 376 433 19,000 1,560 Climbing New York Center
09:48AM 40.5161 -75.0950 235° Southwest 387 445 20,400 1,560 Climbing New York Center
09:49AM 40.4386 -75.2192 231° Southwest 398 458 22,200 1,440 Climbing New York Center
09:50AM 40.3614 -75.3400 230° Southwest 409 471 23,500 840 Climbing New York Center
09:51AM 40.2833 -75.4636 230° Southwest 418 481 24,000 540 Climbing New York Center
09:52AM 40.2061 -75.5889 231° Southwest 420 483 24,700 840 Climbing New York Center
09:53AM 40.1483 -75.7089 238° Southwest 423 487 25,800 960 Climbing New York Center
09:54AM 40.0803 -75.8414 236° Southwest 436 502 26,800 960 Climbing New York Center
09:55AM 39.9975 -76.0031 236° Southwest 452 520 27,900 960 Climbing New York Center
09:56AM 39.9242 -76.1478 237° Southwest 454 522 28,800 900 Climbing New York Center
09:58AM 39.8561 -76.2786 236° Southwest 457 526 29,800 1,500 Climbing New York Center
09:58AM 39.7986 -76.3917 237° Southwest 465 535 31,700 1,500 Climbing Washington Center
09:59AM 39.7186 -76.5464 236° Southwest 438 504 32,700 960 Climbing Washington Center
10:00AM 39.6497 -76.6769 236° Southwest 437 503 33,700 960 Climbing Washington Center
10:02AM 39.5819 -76.8081 236° Southwest 437 503 34,700 720 Climbing Washington Center
10:03AM 39.5125 -76.9397 236° Southwest 438 504 35,300 600 Climbing Washington Center
10:04AM 39.4256 -77.0514 225° Southwest 442 509 36,000 300 Climbing Washington Center
10:05AM 39.3106 -77.1736 219° Southwest 444 511 36,000  Level Washington Center
10:06AM 39.2111 -77.2783 219° Southwest 455 524 36,000  Level Washington Center
10:07AM 39.1114 -77.3814 219° Southwest 457 526 36,000  Level Washington Center
10:08AM 39.0128 -77.4825 219° Southwest 456 525 36,000  Level Washington Center
10:09AM 38.9156 -77.5842 219° Southwest 462 532 36,000  Level Washington Center
10:10AM 38.8058 -77.6939 218° Southwest 459 528 36,000  Level Washington Center
10:11AM 38.7064 -77.7972 219° Southwest 454 522 36,000  Level Washington Center
10:12AM 38.6169 -77.9075 224° Southwest 445 512 36,000  Level Washington Center
10:13AM 38.5431 -78.0333 233° Southwest 443 510 36,000  Level Washington Center
10:14AM 38.4536 -78.1836 233° Southwest 443 510 36,000  Level Washington Center
10:15AM 38.3794 -78.3100 233° Southwest 443 510 36,000  Level Washington Center
10:16AM 38.3047 -78.4356 233° Southwest 444 511 36,000  Level Washington Center
10:17AM 38.2356 -78.5511 233° Southwest 444 511 36,000  Level Washington Center
10:18AM 38.1458 -78.7014 233° Southwest 444 511 36,000  Level Washington Center
10:19AM 38.0714 -78.8253 233° Southwest 444 511 36,000  Level Washington Center
10:20AM 37.9972 -78.9494 233° Southwest 444 511 36,000  Level Washington Center
10:21AM 37.9233 -79.0731 233° Southwest 443 510 36,000  Level Washington Center
10:22AM 37.8406 -79.1925 229° Southwest 445 512 36,000  Level Washington Center
10:23AM 37.7403 -79.3311 228° Southwest 448 516 36,000  Level Washington Center
10:24AM 37.6639 -79.4369 228° Southwest 448 516 36,000  Level Washington Center
10:25AM 37.5794 -79.5536 228° Southwest 448 516 36,000  Level Washington Center
10:26AM 37.4772 -79.6942 228° Southwest 453 521 36,000  Level Washington Center
10:27AM 37.3908 -79.8128 228° Southwest 451 519 36,000  Level Washington Center
10:28AM 37.3064 -79.9269 227° Southwest 451 519 36,000  Level Washington Center
10:30AM 37.2217 -80.0408 227° Southwest 450 518 36,000  Level Washington Center
10:31AM 37.1372 -80.1556 227° Southwest 448 516 36,000  Level Washington Center
10:31AM 37.0453 -80.2786 227° Southwest 448 516 36,000  Level Atlanta Center
10:32AM 36.9592 -80.3917 226° Southwest 435 501 36,000  Level Atlanta Center
10:33AM 36.8728 -80.5072 227° Southwest 435 501 36,000  Level Atlanta Center
10:34AM 36.7864 -80.6225 227° Southwest 445 512 36,000  Level Atlanta Center
10:35AM 36.7061 -80.7297 227° Southwest 440 506 36,000  Level Atlanta Center
10:36AM 36.6236 -80.8417 227° Southwest 440 506 36,000  Level Atlanta Center
10:37AM 36.5367 -80.9564 227° Southwest 440 506 36,000  Level Atlanta Center
10:38AM 36.4519 -81.0706 227° Southwest 440 506 36,000  Level Atlanta Center
10:39AM 36.3669 -81.1819 227° Southwest 440 506 36,000  Level Atlanta Center
10:40AM 36.2819 -81.2958 227° Southwest 440 506 36,000  Level Atlanta Center
10:41AM 36.1969 -81.4067 226° Southwest 445 512 36,000  Level Atlanta Center
10:42AM 36.1097 -81.5200 226° Southwest 451 519 36,000  Level Atlanta Center
10:43AM 36.0242 -81.6331 227° Southwest 451 519 36,000  Level Atlanta Center
10:44AM 35.9347 -81.7461 226° Southwest 456 525 36,000  Level Atlanta Center
10:45AM 35.8492 -81.8561 226° Southwest 456 525 36,000  Level Atlanta Center
10:46AM 35.7633 -81.9683 227° Southwest 456 525 36,000 -300 Level Atlanta Center
10:47AM 35.6756 -82.0806 226° Southwest 456 525 35,500 -540 Descending Atlanta Center
10:48AM 35.5875 -82.1897 225° Southwest 461 531 35,000 -360 Descending Atlanta Center
10:49AM 35.4953 -82.2964 223° Southwest 456 525 34,800 -540 Descending Atlanta Center
10:50AM 35.4028 -82.3978 222° Southwest 450 518 34,000 -480 Descending Atlanta Center
10:51AM 35.3103 -82.5042 223° Southwest 450 518 33,900 -600 Descending Atlanta Center
10:52AM 35.2175 -82.6050 222° Southwest 450 518 32,900 -1,020 Descending Atlanta Center
10:53AM 35.1247 -82.7106 223° Southwest 450 518 31,900 -960 Descending Atlanta Center
10:54AM 35.0297 -82.8111 221° Southwest 461 531 31,000 -960 Descending Atlanta Center
10:55AM 34.9350 -82.9164 222° Southwest 461 531 30,000 -960 Descending Atlanta Center
10:56AM 34.8461 -83.0111 221° Southwest 466 536 29,100 -960 Descending Atlanta Center
10:57AM 34.7531 -83.1186 224° Southwest 466 536 28,100 -960 Descending Atlanta Center
10:58AM 34.6575 -83.2181 221° Southwest 466 536 27,200 -960 Descending Atlanta Center
10:59AM 34.5664 -83.3197 223° Southwest 461 531 26,200 -1,020 Descending Atlanta Center
11:00AM 34.4772 -83.4214 223° Southwest 461 531 25,200 -1,680 Descending Atlanta Center
11:01AM 34.3858 -83.5203 222° Southwest 456 525 22,900 -2,460 Descending Atlanta Center
11:02AM 34.2986 -83.6164 222° Southwest 444 511 20,300 -2,520 Descending Atlanta Center
11:03AM 34.2133 -83.7047 221° Southwest 428 493 17,900 -2,400 Descending Atlanta Center
11:04AM 34.1364 -83.7903 223° Southwest 407 468 15,600 -2,040 Descending Atlanta Center
11:05AM 34.0592 -83.8758 223° Southwest 389 448 13,900 -1,620 Descending Atlanta Center
11:06AM 33.9833 -83.9500 219° Southwest 362 417 12,800 -1,200 Descending Atlanta TRACON
11:07AM 33.9167 -84.0000 212° Southwest 357 411 12,000 -480 Descending Atlanta TRACON
11:08AM 33.8333 -84.0667 214° Southwest 359 413 12,000 -60 Level Atlanta TRACON
11:09AM 33.7500 -84.1333 214° Southwest 354 407 11,900  Descending Atlanta TRACON
11:10AM 33.7333 -84.2333 259° West 306 352 12,000  Climbing Atlanta TRACON
11:11AM 33.7333 -84.3333 270° West 308 354 11,900 -900 Descending Atlanta TRACON
11:12AM 33.7333 -84.4333 270° West 316 364 10,200 -1,680 Descending Atlanta TRACON
11:13AM 33.7333 -84.5333 270° West 296 341 8,600 -1,680 Descending Atlanta TRACON
11:14AM 33.7333 -84.6333 270° West 291 335 6,900 -1,680 Descending Atlanta TRACON
11:15AM 33.7333 -84.7167 270° West 283 326 5,500 -1,020 Descending Atlanta TRACON
11:16AM 33.7167 -84.8000 257° West 264 304 5,000 -240 Descending Atlanta TRACON
11:17AM 33.6667 -84.7667 151° Southeast 222 255 5,000  Level Atlanta TRACON
11:18AM 33.6500 -84.7000 107° East 199 229 5,000 -480 Level Atlanta TRACON
11:19AM 33.6500 -84.6333 90° East 185 213 4,100 -1,020 Descending Atlanta TRACON
11:20AM 33.6500 -84.5833 90° East 189 217 3,100 -960 Descending Atlanta TRACON
11:21AM 33.6500 -84.5167 90° East 166 191 2,200 -840 Descending Atlanta TRACON
11:22AM 33.6500 -84.4667 90° East 142 163 1,400 -840 Descending Atlanta TRACON